sensor_id;sensor_type;location;lat;lon;timestamp;temperature;humidity
57829;DHT22;43657;52.698;6.314;2022-08-30T00:00:19;13.60;99.90
57829;DHT22;43657;52.698;6.314;2022-08-30T00:03:05;13.50;99.90
57829;DHT22;43657;52.698;6.314;2022-08-30T00:05:34;13.50;99.90
57829;DHT22;43657;52.698;6.314;2022-08-30T00:07:59;13.50;99.90
57829;DHT22;43657;52.698;6.314;2022-08-30T00:10:26;13.60;99.90
57829;DHT22;43657;52.698;6.314;2022-08-30T00:12:54;13.60;99.90
57829;DHT22;43657;52.698;6.314;2022-08-30T00:15:20;13.70;99.90
57829;DHT22;43657;52.698;6.314;2022-08-30T00:17:46;13.60;99.90
57829;DHT22;43657;52.698;6.314;2022-08-30T00:20:15;13.70;99.90
57829;DHT22;43657;52.698;6.314;2022-08-30T00:22:43;13.70;99.90
57829;DHT22;43657;52.698;6.314;2022-08-30T00:25:10;13.70;99.90
57829;DHT22;43657;52.698;6.314;2022-08-30T00:27:36;13.70;99.90
57829;DHT22;43657;52.698;6.314;2022-08-30T00:30:03;13.70;99.90
57829;DHT22;43657;52.698;6.314;2022-08-30T00:32:29;13.70;99.90
57829;DHT22;43657;52.698;6.314;2022-08-30T00:34:55;13.80;99.90
57829;DHT22;43657;52.698;6.314;2022-08-30T00:37:21;13.90;99.90
57829;DHT22;43657;52.698;6.314;2022-08-30T00:39:47;13.90;99.90
57829;DHT22;43657;52.698;6.314;2022-08-30T00:42:13;13.90;99.90
57829;DHT22;43657;52.698;6.314;2022-08-30T00:44:40;13.90;99.90
57829;DHT22;43657;52.698;6.314;2022-08-30T00:47:06;13.90;99.90
57829;DHT22;43657;52.698;6.314;2022-08-30T00:49:33;13.90;99.90
57829;DHT22;43657;52.698;6.314;2022-08-30T00:52:00;13.90;99.90
57829;DHT22;43657;52.698;6.314;2022-08-30T00:54:27;13.90;99.90
57829;DHT22;43657;52.698;6.314;2022-08-30T00:56:53;14.00;99.90
57829;DHT22;43657;52.698;6.314;2022-08-30T00:59:20;14.00;99.90
57829;DHT22;43657;52.698;6.314;2022-08-30T01:01:49;14.00;99.90
57829;DHT22;43657;52.698;6.314;2022-08-30T01:04:15;14.00;99.90
57829;DHT22;43657;52.698;6.314;2022-08-30T01:06:41;14.00;99.90
57829;DHT22;43657;52.698;6.314;2022-08-30T01:09:07;14.00;99.90
57829;DHT22;43657;52.698;6.314;2022-08-30T01:11:34;14.00;99.90
57829;DHT22;43657;52.698;6.314;2022-08-30T01:14:02;14.00;99.90
57829;DHT22;43657;52.698;6.314;2022-08-30T01:16:31;13.90;99.90
57829;DHT22;43657;52.698;6.314;2022-08-30T01:18:58;14.00;99.90
57829;DHT22;43657;52.698;6.314;2022-08-30T01:21:36;14.00;99.90
57829;DHT22;43657;52.698;6.314;2022-08-30T01:24:05;14.00;99.90
57829;DHT22;43657;52.698;6.314;2022-08-30T01:26:33;14.00;99.90
57829;DHT22;43657;52.698;6.314;2022-08-30T01:29:04;14.10;99.90
57829;DHT22;43657;52.698;6.314;2022-08-30T01:31:30;13.90;99.90
57829;DHT22;43657;52.698;6.314;2022-08-30T01:33:57;13.90;99.90
57829;DHT22;43657;52.698;6.314;2022-08-30T01:36:23;13.80;99.90
57829;DHT22;43657;52.698;6.314;2022-08-30T01:38:52;13.70;99.90
57829;DHT22;43657;52.698;6.314;2022-08-30T01:41:20;13.70;99.90
57829;DHT22;43657;52.698;6.314;2022-08-30T01:43:47;13.60;99.90
57829;DHT22;43657;52.698;6.314;2022-08-30T01:46:14;13.60;99.90
57829;DHT22;43657;52.698;6.314;2022-08-30T01:48:41;13.50;99.90
57829;DHT22;43657;52.698;6.314;2022-08-30T01:51:12;13.50;99.90
57829;DHT22;43657;52.698;6.314;2022-08-30T01:53:40;13.40;99.90
57829;DHT22;43657;52.698;6.314;2022-08-30T01:56:06;13.40;99.90
57829;DHT22;43657;52.698;6.314;2022-08-30T01:58:33;13.30;99.90
57829;DHT22;43657;52.698;6.314;2022-08-30T02:00:59;13.20;99.90
57829;DHT22;43657;52.698;6.314;2022-08-30T02:03:25;13.20;99.90
57829;DHT22;43657;52.698;6.314;2022-08-30T02:05:55;13.10;99.90
57829;DHT22;43657;52.698;6.314;2022-08-30T02:08:20;13.10;99.90
57829;DHT22;43657;52.698;6.314;2022-08-30T02:10:46;13.00;99.90
57829;DHT22;43657;52.698;6.314;2022-08-30T02:13:12;13.00;99.90
57829;DHT22;43657;52.698;6.314;2022-08-30T02:15:37;13.00;99.90
57829;DHT22;43657;52.698;6.314;2022-08-30T02:18:03;13.00;99.90
57829;DHT22;43657;52.698;6.314;2022-08-30T02:20:28;12.90;99.90
57829;DHT22;43657;52.698;6.314;2022-08-30T02:22:54;13.00;99.90
57829;DHT22;43657;52.698;6.314;2022-08-30T02:25:20;12.90;99.90
57829;DHT22;43657;52.698;6.314;2022-08-30T02:27:46;12.90;99.90
57829;DHT22;43657;52.698;6.314;2022-08-30T02:30:12;12.90;99.90
57829;DHT22;43657;52.698;6.314;2022-08-30T02:32:37;12.90;99.90
57829;DHT22;43657;52.698;6.314;2022-08-30T02:35:03;12.90;99.90
57829;DHT22;43657;52.698;6.314;2022-08-30T02:37:29;12.90;99.90
57829;DHT22;43657;52.698;6.314;2022-08-30T02:39:55;12.90;99.90
57829;DHT22;43657;52.698;6.314;2022-08-30T02:42:20;12.80;99.90
57829;DHT22;43657;52.698;6.314;2022-08-30T02:44:46;12.90;99.90
57829;DHT22;43657;52.698;6.314;2022-08-30T02:47:11;12.90;99.90
57829;DHT22;43657;52.698;6.314;2022-08-30T02:49:37;13.00;99.90
57829;DHT22;43657;52.698;6.314;2022-08-30T02:52:04;13.00;99.90
57829;DHT22;43657;52.698;6.314;2022-08-30T02:54:30;13.10;99.90
57829;DHT22;43657;52.698;6.314;2022-08-30T02:56:58;13.20;99.90
57829;DHT22;43657;52.698;6.314;2022-08-30T02:59:27;13.30;99.90
57829;DHT22;43657;52.698;6.314;2022-08-30T03:01:52;13.30;99.90
57829;DHT22;43657;52.698;6.314;2022-08-30T03:04:18;13.40;99.90
57829;DHT22;43657;52.698;6.314;2022-08-30T03:06:43;13.40;99.90
57829;DHT22;43657;52.698;6.314;2022-08-30T03:09:09;13.40;99.90
57829;DHT22;43657;52.698;6.314;2022-08-30T03:11:35;13.40;99.90
57829;DHT22;43657;52.698;6.314;2022-08-30T03:14:02;13.50;99.90
57829;DHT22;43657;52.698;6.314;2022-08-30T03:16:27;13.40;99.90
57829;DHT22;43657;52.698;6.314;2022-08-30T03:18:53;13.30;99.90
57829;DHT22;43657;52.698;6.314;2022-08-30T03:21:18;13.30;99.90
57829;DHT22;43657;52.698;6.314;2022-08-30T03:23:44;13.10;99.90
57829;DHT22;43657;52.698;6.314;2022-08-30T03:26:10;13.10;99.90
57829;DHT22;43657;52.698;6.314;2022-08-30T03:28:40;13.00;99.90
57829;DHT22;43657;52.698;6.314;2022-08-30T03:31:07;13.00;99.90
57829;DHT22;43657;52.698;6.314;2022-08-30T03:33:34;12.90;99.90
57829;DHT22;43657;52.698;6.314;2022-08-30T03:35:59;12.80;99.90
57829;DHT22;43657;52.698;6.314;2022-08-30T03:38:25;12.80;99.90
57829;DHT22;43657;52.698;6.314;2022-08-30T03:40:51;12.70;99.90
57829;DHT22;43657;52.698;6.314;2022-08-30T03:43:16;12.60;99.90
57829;DHT22;43657;52.698;6.314;2022-08-30T03:45:42;12.60;99.90
57829;DHT22;43657;52.698;6.314;2022-08-30T03:48:09;12.50;99.90
57829;DHT22;43657;52.698;6.314;2022-08-30T03:50:34;12.50;99.90
57829;DHT22;43657;52.698;6.314;2022-08-30T03:53:01;12.40;99.90
57829;DHT22;43657;52.698;6.314;2022-08-30T03:55:27;12.30;99.90
57829;DHT22;43657;52.698;6.314;2022-08-30T03:57:54;12.30;99.90
57829;DHT22;43657;52.698;6.314;2022-08-30T04:00:20;12.20;99.90
57829;DHT22;43657;52.698;6.314;2022-08-30T04:02:45;12.20;99.90
57829;DHT22;43657;52.698;6.314;2022-08-30T04:05:11;12.10;99.90
57829;DHT22;43657;52.698;6.314;2022-08-30T04:07:37;12.00;99.90
57829;DHT22;43657;52.698;6.314;2022-08-30T04:10:04;11.90;99.90
57829;DHT22;43657;52.698;6.314;2022-08-30T04:12:30;11.90;99.90
57829;DHT22;43657;52.698;6.314;2022-08-30T04:14:56;11.90;99.90
57829;DHT22;43657;52.698;6.314;2022-08-30T04:17:21;11.80;99.90
57829;DHT22;43657;52.698;6.314;2022-08-30T04:19:47;11.80;99.90
57829;DHT22;43657;52.698;6.314;2022-08-30T04:22:12;11.70;99.90
57829;DHT22;43657;52.698;6.314;2022-08-30T04:24:38;11.70;99.90
57829;DHT22;43657;52.698;6.314;2022-08-30T04:27:06;11.70;99.90
57829;DHT22;43657;52.698;6.314;2022-08-30T04:29:33;11.60;99.90
57829;DHT22;43657;52.698;6.314;2022-08-30T04:31:59;11.60;99.90
57829;DHT22;43657;52.698;6.314;2022-08-30T04:34:25;11.50;99.90
57829;DHT22;43657;52.698;6.314;2022-08-30T04:36:51;11.50;99.90
57829;DHT22;43657;52.698;6.314;2022-08-30T04:39:17;11.50;99.90
57829;DHT22;43657;52.698;6.314;2022-08-30T04:41:43;11.50;99.90
57829;DHT22;43657;52.698;6.314;2022-08-30T04:44:08;11.40;99.90
57829;DHT22;43657;52.698;6.314;2022-08-30T04:46:35;11.40;99.90
57829;DHT22;43657;52.698;6.314;2022-08-30T04:49:01;11.40;99.90
57829;DHT22;43657;52.698;6.314;2022-08-30T04:51:27;11.40;99.90
57829;DHT22;43657;52.698;6.314;2022-08-30T04:53:52;11.40;99.90
57829;DHT22;43657;52.698;6.314;2022-08-30T04:56:20;11.40;99.90
57829;DHT22;43657;52.698;6.314;2022-08-30T04:58:51;11.40;99.90
57829;DHT22;43657;52.698;6.314;2022-08-30T05:01:25;11.40;99.90
57829;DHT22;43657;52.698;6.314;2022-08-30T05:03:52;11.40;99.90
57829;DHT22;43657;52.698;6.314;2022-08-30T05:06:19;11.40;99.90
57829;DHT22;43657;52.698;6.314;2022-08-30T05:08:45;11.40;99.90
57829;DHT22;43657;52.698;6.314;2022-08-30T05:11:11;11.40;99.90
57829;DHT22;43657;52.698;6.314;2022-08-30T05:13:36;11.50;99.90
57829;DHT22;43657;52.698;6.314;2022-08-30T05:16:05;11.50;99.90
57829;DHT22;43657;52.698;6.314;2022-08-30T05:18:31;11.50;99.90
57829;DHT22;43657;52.698;6.314;2022-08-30T05:21:09;11.50;99.90
57829;DHT22;43657;52.698;6.314;2022-08-30T05:23:36;11.50;99.90
57829;DHT22;43657;52.698;6.314;2022-08-30T05:26:16;11.60;99.90
57829;DHT22;43657;52.698;6.314;2022-08-30T05:28:42;11.60;99.90
57829;DHT22;43657;52.698;6.314;2022-08-30T05:31:38;11.70;99.90
57829;DHT22;43657;52.698;6.314;2022-08-30T05:34:03;11.90;99.90
57829;DHT22;43657;52.698;6.314;2022-08-30T05:36:32;12.10;99.90
57829;DHT22;43657;52.698;6.314;2022-08-30T05:38:58;12.20;99.90
57829;DHT22;43657;52.698;6.314;2022-08-30T05:41:25;12.30;99.90
57829;DHT22;43657;52.698;6.314;2022-08-30T05:43:53;12.30;99.90
57829;DHT22;43657;52.698;6.314;2022-08-30T05:46:19;12.40;99.90
57829;DHT22;43657;52.698;6.314;2022-08-30T05:48:46;12.50;99.90
57829;DHT22;43657;52.698;6.314;2022-08-30T05:51:17;12.50;99.90
57829;DHT22;43657;52.698;6.314;2022-08-30T05:53:44;12.70;99.90
57829;DHT22;43657;52.698;6.314;2022-08-30T05:56:12;12.70;99.90
57829;DHT22;43657;52.698;6.314;2022-08-30T05:58:38;12.80;99.90
57829;DHT22;43657;52.698;6.314;2022-08-30T06:01:04;12.90;99.90
57829;DHT22;43657;52.698;6.314;2022-08-30T06:03:31;12.90;99.90
57829;DHT22;43657;52.698;6.314;2022-08-30T06:05:58;13.00;99.90
57829;DHT22;43657;52.698;6.314;2022-08-30T06:08:24;13.00;99.90
57829;DHT22;43657;52.698;6.314;2022-08-30T06:10:50;13.10;99.90
57829;DHT22;43657;52.698;6.314;2022-08-30T06:13:16;13.20;99.90
57829;DHT22;43657;52.698;6.314;2022-08-30T06:15:42;13.20;99.90
57829;DHT22;43657;52.698;6.314;2022-08-30T06:18:10;13.30;99.90
57829;DHT22;43657;52.698;6.314;2022-08-30T06:20:43;13.40;99.90
57829;DHT22;43657;52.698;6.314;2022-08-30T06:23:09;13.60;99.90
57829;DHT22;43657;52.698;6.314;2022-08-30T06:25:38;13.70;99.90
57829;DHT22;43657;52.698;6.314;2022-08-30T06:28:05;13.80;99.90
57829;DHT22;43657;52.698;6.314;2022-08-30T06:30:31;13.90;99.90
57829;DHT22;43657;52.698;6.314;2022-08-30T06:32:57;14.00;99.90
57829;DHT22;43657;52.698;6.314;2022-08-30T06:35:22;14.20;99.90
57829;DHT22;43657;52.698;6.314;2022-08-30T06:37:49;14.30;99.90
57829;DHT22;43657;52.698;6.314;2022-08-30T06:40:14;14.40;99.90
57829;DHT22;43657;52.698;6.314;2022-08-30T06:42:42;14.50;99.90
57829;DHT22;43657;52.698;6.314;2022-08-30T06:45:08;14.50;99.90
57829;DHT22;43657;52.698;6.314;2022-08-30T06:47:34;14.60;99.90
57829;DHT22;43657;52.698;6.314;2022-08-30T06:50:00;14.80;99.90
57829;DHT22;43657;52.698;6.314;2022-08-30T06:52:25;14.90;99.90
57829;DHT22;43657;52.698;6.314;2022-08-30T06:54:53;15.00;99.90
57829;DHT22;43657;52.698;6.314;2022-08-30T06:57:19;15.10;99.90
57829;DHT22;43657;52.698;6.314;2022-08-30T06:59:45;15.20;99.90
57829;DHT22;43657;52.698;6.314;2022-08-30T07:02:10;15.20;99.90
57829;DHT22;43657;52.698;6.314;2022-08-30T07:04:36;15.40;99.90
57829;DHT22;43657;52.698;6.314;2022-08-30T07:07:03;15.50;99.90
57829;DHT22;43657;52.698;6.314;2022-08-30T07:09:30;15.60;99.90
57829;DHT22;43657;52.698;6.314;2022-08-30T07:12:01;15.70;99.90
57829;DHT22;43657;52.698;6.314;2022-08-30T07:14:27;15.80;99.90
57829;DHT22;43657;52.698;6.314;2022-08-30T07:16:53;15.90;99.90
57829;DHT22;43657;52.698;6.314;2022-08-30T07:19:18;16.00;99.90
57829;DHT22;43657;52.698;6.314;2022-08-30T07:21:48;16.00;99.90
57829;DHT22;43657;52.698;6.314;2022-08-30T07:28:02;16.30;99.90
57829;DHT22;43657;52.698;6.314;2022-08-30T07:30:57;16.40;99.90
57829;DHT22;43657;52.698;6.314;2022-08-30T07:34:33;16.50;99.90
57829;DHT22;43657;52.698;6.314;2022-08-30T07:37:48;16.70;99.90
57829;DHT22;43657;52.698;6.314;2022-08-30T07:40:47;16.70;99.90
57829;DHT22;43657;52.698;6.314;2022-08-30T07:43:22;16.80;99.90
57829;DHT22;43657;52.698;6.314;2022-08-30T07:45:52;16.90;99.90
57829;DHT22;43657;52.698;6.314;2022-08-30T07:48:35;17.00;99.90
57829;DHT22;43657;52.698;6.314;2022-08-30T07:51:14;17.00;99.90
57829;DHT22;43657;52.698;6.314;2022-08-30T07:53:46;17.10;99.90
57829;DHT22;43657;52.698;6.314;2022-08-30T07:56:15;17.20;99.90
57829;DHT22;43657;52.698;6.314;2022-08-30T07:58:42;17.20;99.90
57829;DHT22;43657;52.698;6.314;2022-08-30T08:01:11;17.30;99.90
57829;DHT22;43657;52.698;6.314;2022-08-30T08:03:44;17.40;99.90
57829;DHT22;43657;52.698;6.314;2022-08-30T08:06:13;17.50;99.90
57829;DHT22;43657;52.698;6.314;2022-08-30T08:08:45;17.60;99.90
57829;DHT22;43657;52.698;6.314;2022-08-30T08:11:18;17.60;99.90
57829;DHT22;43657;52.698;6.314;2022-08-30T08:13:46;17.80;99.90
57829;DHT22;43657;52.698;6.314;2022-08-30T08:16:13;17.90;99.90
57829;DHT22;43657;52.698;6.314;2022-08-30T08:18:42;18.00;99.90
57829;DHT22;43657;52.698;6.314;2022-08-30T08:21:19;18.10;99.90
57829;DHT22;43657;52.698;6.314;2022-08-30T08:23:48;18.20;99.90
57829;DHT22;43657;52.698;6.314;2022-08-30T08:26:18;18.30;99.90
57829;DHT22;43657;52.698;6.314;2022-08-30T08:28:47;18.40;99.90
57829;DHT22;43657;52.698;6.314;2022-08-30T08:31:21;18.50;99.90
57829;DHT22;43657;52.698;6.314;2022-08-30T08:33:51;18.60;99.90
57829;DHT22;43657;52.698;6.314;2022-08-30T08:36:19;19.20;99.80
57829;DHT22;43657;52.698;6.314;2022-08-30T08:38:46;19.70;94.60
57829;DHT22;43657;52.698;6.314;2022-08-30T08:43:52;21.00;93.50
57829;DHT22;43657;52.698;6.314;2022-08-30T08:49:25;22.10;90.10
57829;DHT22;43657;52.698;6.314;2022-08-30T08:51:53;22.60;87.00
57829;DHT22;43657;52.698;6.314;2022-08-30T08:54:54;22.90;84.10
57829;DHT22;43657;52.698;6.314;2022-08-30T08:57:21;23.20;82.40
57829;DHT22;43657;52.698;6.314;2022-08-30T08:59:47;23.30;80.90
57829;DHT22;43657;52.698;6.314;2022-08-30T09:02:37;23.30;79.00
57829;DHT22;43657;52.698;6.314;2022-08-30T09:05:37;23.30;73.50
57829;DHT22;43657;52.698;6.314;2022-08-30T09:08:15;23.20;74.40
57829;DHT22;43657;52.698;6.314;2022-08-30T09:11:05;23.20;74.90
57829;DHT22;43657;52.698;6.314;2022-08-30T09:13:40;23.30;70.00
57829;DHT22;43657;52.698;6.314;2022-08-30T09:16:45;23.40;71.80
57829;DHT22;43657;52.698;6.314;2022-08-30T09:22:26;23.50;72.90
57829;DHT22;43657;52.698;6.314;2022-08-30T09:25:33;23.40;69.20
57829;DHT22;43657;52.698;6.314;2022-08-30T09:28:13;23.30;70.00
57829;DHT22;43657;52.698;6.314;2022-08-30T09:31:19;23.40;70.50
57829;DHT22;43657;52.698;6.314;2022-08-30T09:33:55;23.50;68.90
57829;DHT22;43657;52.698;6.314;2022-08-30T09:36:28;23.50;71.00
57829;DHT22;43657;52.698;6.314;2022-08-30T09:42:26;23.70;69.70
57829;DHT22;43657;52.698;6.314;2022-08-30T09:44:56;23.80;66.20
57829;DHT22;43657;52.698;6.314;2022-08-30T09:47:38;23.80;67.30
57829;DHT22;43657;52.698;6.314;2022-08-30T09:50:24;23.80;66.80
57829;DHT22;43657;52.698;6.314;2022-08-30T09:53:06;23.60;64.30
57829;DHT22;43657;52.698;6.314;2022-08-30T10:12:17;23.70;62.70
57829;DHT22;43657;52.698;6.314;2022-08-30T10:21:20;23.90;61.90
57829;DHT22;43657;52.698;6.314;2022-08-30T10:24:18;24.00;63.00
57829;DHT22;43657;52.698;6.314;2022-08-30T10:26:56;24.20;62.20
57829;DHT22;43657;52.698;6.314;2022-08-30T10:29:50;24.30;61.00
57829;DHT22;43657;52.698;6.314;2022-08-30T10:32:43;24.30;62.20
57829;DHT22;43657;52.698;6.314;2022-08-30T10:38:35;24.40;61.40
57829;DHT22;43657;52.698;6.314;2022-08-30T10:41:31;24.40;58.30
57829;DHT22;43657;52.698;6.314;2022-08-30T10:47:51;24.40;60.50
57829;DHT22;43657;52.698;6.314;2022-08-30T10:50:40;24.70;59.70
57829;DHT22;43657;52.698;6.314;2022-08-30T10:53:45;24.80;59.60
57829;DHT22;43657;52.698;6.314;2022-08-30T10:56:33;24.80;61.00
57829;DHT22;43657;52.698;6.314;2022-08-30T10:59:06;24.90;58.40
57829;DHT22;43657;52.698;6.314;2022-08-30T12:16:41;26.00;55.00
57829;DHT22;43657;52.698;6.314;2022-08-30T12:20:00;26.00;53.80
57829;DHT22;43657;52.698;6.314;2022-08-30T12:53:34;26.60;52.50
57829;DHT22;43657;52.698;6.314;2022-08-30T12:57:32;26.60;54.10
57829;DHT22;43657;52.698;6.314;2022-08-30T13:01:09;26.90;52.50
57829;DHT22;43657;52.698;6.314;2022-08-30T13:04:29;27.00;52.30
57829;DHT22;43657;52.698;6.314;2022-08-30T13:07:40;26.90;52.90
57829;DHT22;43657;52.698;6.314;2022-08-30T13:24:05;26.00;53.40
57829;DHT22;43657;52.698;6.314;2022-08-30T13:27:40;26.00;53.70
57829;DHT22;43657;52.698;6.314;2022-08-30T13:30:27;26.10;54.20
57829;DHT22;43657;52.698;6.314;2022-08-30T13:33:05;26.40;54.00
57829;DHT22;43657;52.698;6.314;2022-08-30T13:36:02;26.30;53.20
57829;DHT22;43657;52.698;6.314;2022-08-30T13:39:36;26.20;52.60
57829;DHT22;43657;52.698;6.314;2022-08-30T13:45:00;25.90;53.90
57829;DHT22;43657;52.698;6.314;2022-08-30T13:47:48;26.00;53.80
57829;DHT22;43657;52.698;6.314;2022-08-30T13:50:25;26.10;54.10
57829;DHT22;43657;52.698;6.314;2022-08-30T13:53:18;26.30;53.20
57829;DHT22;43657;52.698;6.314;2022-08-30T13:56:14;26.20;53.00
57829;DHT22;43657;52.698;6.314;2022-08-30T13:59:10;26.00;53.10
57829;DHT22;43657;52.698;6.314;2022-08-30T14:01:57;25.80;54.00
57829;DHT22;43657;52.698;6.314;2022-08-30T14:04:38;25.70;54.00
57829;DHT22;43657;52.698;6.314;2022-08-30T14:07:25;25.50;54.70
57829;DHT22;43657;52.698;6.314;2022-08-30T14:09:55;25.60;55.90
57829;DHT22;43657;52.698;6.314;2022-08-30T14:12:33;25.60;55.10
57829;DHT22;43657;52.698;6.314;2022-08-30T14:15:11;25.40;55.00
57829;DHT22;43657;52.698;6.314;2022-08-30T14:17:50;25.40;54.50
57829;DHT22;43657;52.698;6.314;2022-08-30T14:20:25;25.40;55.60
57829;DHT22;43657;52.698;6.314;2022-08-30T14:22:56;25.40;54.90
57829;DHT22;43657;52.698;6.314;2022-08-30T14:25:35;25.20;54.20
57829;DHT22;43657;52.698;6.314;2022-08-30T14:28:08;24.90;54.40
57829;DHT22;43657;52.698;6.314;2022-08-30T14:30:58;24.60;55.60
57829;DHT22;43657;52.698;6.314;2022-08-30T14:33:39;24.40;56.00
57829;DHT22;43657;52.698;6.314;2022-08-30T14:36:29;24.10;56.90
57829;DHT22;43657;52.698;6.314;2022-08-30T14:39:21;24.00;58.10
57829;DHT22;43657;52.698;6.314;2022-08-30T14:41:54;23.90;57.20
57829;DHT22;43657;52.698;6.314;2022-08-30T14:45:02;23.80;57.30
57829;DHT22;43657;52.698;6.314;2022-08-30T14:47:36;23.70;57.50
57829;DHT22;43657;52.698;6.314;2022-08-30T14:50:03;23.60;57.90
57829;DHT22;43657;52.698;6.314;2022-08-30T14:52:32;23.40;58.50
57829;DHT22;43657;52.698;6.314;2022-08-30T14:55:26;23.40;59.10
57829;DHT22;43657;52.698;6.314;2022-08-30T15:01:21;23.30;59.20
57829;DHT22;43657;52.698;6.314;2022-08-30T15:03:48;23.30;59.80
57829;DHT22;43657;52.698;6.314;2022-08-30T15:06:24;23.20;59.70
57829;DHT22;43657;52.698;6.314;2022-08-30T15:09:21;23.10;59.70
57829;DHT22;43657;52.698;6.314;2022-08-30T15:11:55;23.10;59.60
57829;DHT22;43657;52.698;6.314;2022-08-30T15:14:33;23.10;59.50
57829;DHT22;43657;52.698;6.314;2022-08-30T15:17:02;23.00;59.70
57829;DHT22;43657;52.698;6.314;2022-08-30T15:19:35;23.00;59.90
57829;DHT22;43657;52.698;6.314;2022-08-30T15:22:09;23.00;60.30
57829;DHT22;43657;52.698;6.314;2022-08-30T15:24:36;23.00;61.10
57829;DHT22;43657;52.698;6.314;2022-08-30T15:27:02;23.10;61.40
57829;DHT22;43657;52.698;6.314;2022-08-30T15:29:28;23.20;61.30
57829;DHT22;43657;52.698;6.314;2022-08-30T15:31:54;23.10;61.10
57829;DHT22;43657;52.698;6.314;2022-08-30T15:34:20;23.00;61.30
57829;DHT22;43657;52.698;6.314;2022-08-30T15:36:47;22.90;61.50
57829;DHT22;43657;52.698;6.314;2022-08-30T15:39:14;22.70;61.70
57829;DHT22;43657;52.698;6.314;2022-08-30T15:41:40;22.60;62.00
57829;DHT22;43657;52.698;6.314;2022-08-30T15:44:06;22.50;62.50
57829;DHT22;43657;52.698;6.314;2022-08-30T15:46:35;22.40;62.90
57829;DHT22;43657;52.698;6.314;2022-08-30T15:49:09;22.40;63.20
57829;DHT22;43657;52.698;6.314;2022-08-30T15:51:35;22.40;63.60
57829;DHT22;43657;52.698;6.314;2022-08-30T15:54:02;22.40;63.50
57829;DHT22;43657;52.698;6.314;2022-08-30T15:56:29;22.50;63.70
57829;DHT22;43657;52.698;6.314;2022-08-30T15:58:55;22.60;64.00
57829;DHT22;43657;52.698;6.314;2022-08-30T16:01:21;22.70;63.90
57829;DHT22;43657;52.698;6.314;2022-08-30T16:03:47;22.80;63.50
57829;DHT22;43657;52.698;6.314;2022-08-30T16:06:15;22.80;63.50
57829;DHT22;43657;52.698;6.314;2022-08-30T16:08:42;22.80;64.10
57829;DHT22;43657;52.698;6.314;2022-08-30T16:11:10;22.60;63.90
57829;DHT22;43657;52.698;6.314;2022-08-30T16:13:36;22.40;64.30
57829;DHT22;43657;52.698;6.314;2022-08-30T16:16:04;22.30;64.70
57829;DHT22;43657;52.698;6.314;2022-08-30T16:18:30;22.10;65.10
57829;DHT22;43657;52.698;6.314;2022-08-30T16:21:06;21.90;65.50
57829;DHT22;43657;52.698;6.314;2022-08-30T16:23:34;21.80;66.10
57829;DHT22;43657;52.698;6.314;2022-08-30T16:26:00;21.70;66.30
57829;DHT22;43657;52.698;6.314;2022-08-30T16:28:25;21.80;66.50
57829;DHT22;43657;52.698;6.314;2022-08-30T16:30:51;21.80;66.80
57829;DHT22;43657;52.698;6.314;2022-08-30T16:33:17;21.80;66.80
57829;DHT22;43657;52.698;6.314;2022-08-30T16:35:42;21.80;66.60
57829;DHT22;43657;52.698;6.314;2022-08-30T16:38:08;21.80;66.10
57829;DHT22;43657;52.698;6.314;2022-08-30T16:40:34;21.90;65.90
57829;DHT22;43657;52.698;6.314;2022-08-30T16:43:01;21.90;66.60
57829;DHT22;43657;52.698;6.314;2022-08-30T16:45:27;21.90;66.00
57829;DHT22;43657;52.698;6.314;2022-08-30T16:47:53;21.80;66.30
57829;DHT22;43657;52.698;6.314;2022-08-30T16:50:18;21.80;66.70
57829;DHT22;43657;52.698;6.314;2022-08-30T16:52:48;21.70;66.80
57829;DHT22;43657;52.698;6.314;2022-08-30T16:55:14;21.60;66.80
57829;DHT22;43657;52.698;6.314;2022-08-30T16:57:39;21.60;67.00
57829;DHT22;43657;52.698;6.314;2022-08-30T17:00:05;21.50;67.00
57829;DHT22;43657;52.698;6.314;2022-08-30T17:02:33;21.50;67.30
57829;DHT22;43657;52.698;6.314;2022-08-30T17:04:59;21.50;67.60
57829;DHT22;43657;52.698;6.314;2022-08-30T17:07:24;21.50;67.90
57829;DHT22;43657;52.698;6.314;2022-08-30T17:09:50;21.40;68.20
57829;DHT22;43657;52.698;6.314;2022-08-30T17:12:16;21.30;68.70
57829;DHT22;43657;52.698;6.314;2022-08-30T17:14:41;21.30;68.80
57829;DHT22;43657;52.698;6.314;2022-08-30T17:17:07;21.30;69.20
57829;DHT22;43657;52.698;6.314;2022-08-30T17:19:33;21.20;69.50
57829;DHT22;43657;52.698;6.314;2022-08-30T17:21:58;21.20;70.00
57829;DHT22;43657;52.698;6.314;2022-08-30T17:24:25;21.10;70.40
57829;DHT22;43657;52.698;6.314;2022-08-30T17:26:51;21.00;70.80
57829;DHT22;43657;52.698;6.314;2022-08-30T17:29:17;20.90;71.30
57829;DHT22;43657;52.698;6.314;2022-08-30T17:31:42;20.90;71.50
57829;DHT22;43657;52.698;6.314;2022-08-30T17:34:10;20.80;71.60
57829;DHT22;43657;52.698;6.314;2022-08-30T17:36:37;20.70;72.00
57829;DHT22;43657;52.698;6.314;2022-08-30T17:39:05;20.70;72.20
57829;DHT22;43657;52.698;6.314;2022-08-30T17:41:31;20.70;72.50
57829;DHT22;43657;52.698;6.314;2022-08-30T17:43:57;20.60;72.30
57829;DHT22;43657;52.698;6.314;2022-08-30T17:46:22;20.60;72.60
57829;DHT22;43657;52.698;6.314;2022-08-30T17:48:48;20.50;72.80
57829;DHT22;43657;52.698;6.314;2022-08-30T17:51:13;20.50;73.30
57829;DHT22;43657;52.698;6.314;2022-08-30T17:53:39;20.40;73.50
57829;DHT22;43657;52.698;6.314;2022-08-30T17:56:05;20.40;74.60
57829;DHT22;43657;52.698;6.314;2022-08-30T17:58:31;20.30;74.10
57829;DHT22;43657;52.698;6.314;2022-08-30T18:01:09;20.30;74.70
57829;DHT22;43657;52.698;6.314;2022-08-30T18:03:34;20.20;74.80
57829;DHT22;43657;52.698;6.314;2022-08-30T18:06:01;20.20;75.20
57829;DHT22;43657;52.698;6.314;2022-08-30T18:08:27;20.10;75.50
57829;DHT22;43657;52.698;6.314;2022-08-30T18:10:52;20.00;76.10
57829;DHT22;43657;52.698;6.314;2022-08-30T18:13:18;19.90;76.70
57829;DHT22;43657;52.698;6.314;2022-08-30T18:15:43;19.80;77.50
57829;DHT22;43657;52.698;6.314;2022-08-30T18:18:09;19.70;77.20
57829;DHT22;43657;52.698;6.314;2022-08-30T18:20:34;19.70;77.90
57829;DHT22;43657;52.698;6.314;2022-08-30T18:23:01;19.60;78.80
57829;DHT22;43657;52.698;6.314;2022-08-30T18:25:27;19.50;78.90
57829;DHT22;43657;52.698;6.314;2022-08-30T18:27:52;19.50;78.90
57829;DHT22;43657;52.698;6.314;2022-08-30T18:30:18;19.40;80.00
57829;DHT22;43657;52.698;6.314;2022-08-30T18:32:44;19.30;79.70
57829;DHT22;43657;52.698;6.314;2022-08-30T18:35:09;19.30;80.60
57829;DHT22;43657;52.698;6.314;2022-08-30T18:37:35;19.20;80.60
57829;DHT22;43657;52.698;6.314;2022-08-30T18:40:01;19.20;81.00
57829;DHT22;43657;52.698;6.314;2022-08-30T18:42:27;19.10;81.50
57829;DHT22;43657;52.698;6.314;2022-08-30T18:44:52;19.00;82.10
57829;DHT22;43657;52.698;6.314;2022-08-30T18:47:18;19.00;82.70
57829;DHT22;43657;52.698;6.314;2022-08-30T18:49:44;18.90;83.50